Chesterfield, MO

8:27 PM CDT on August 29, 2016 (GMT -0500)
Spirit Of Saint Louis | | Change Station

Elev 463 ft 38.66 °N, 90.66 °W | Updated 33 minutes ago

Scattered Clouds
Scattered Clouds
83 °F
Feels Like 93 °F
N
0
Wind Variable Wind from North

Today
High -- | Low -- °F
--% Chance of Precip.
Yesterday
High -- | Low -- °F
Precip. -- in
Pressure 30.06 in
Visibility 10.0 miles
Clouds Scattered Clouds 4900 ft
Scattered Clouds 6000 ft
Heat Index 93 °F
Dew Point 78 °F
Humidity 85%
Rainfall 0.00 in
Snow Depth Not available.
6:29 AM 7:36 PM
Waning Crescent, 6% visible
METAR KSUS 300054Z 00000KT 10SM SCT049 SCT060 28/26 A3009 RMK AO2 SLP180 T02830256
Pressure 30.06 in
Visibility 10.0 miles
Clouds Scattered Clouds 4900 ft
Scattered Clouds 6000 ft
Heat Index 93 °F
Dew Point 78 °F
Humidity 85%
Rainfall 0.00 in
Snow Depth Not available.
6:29 AM 7:36 PM
Waning Crescent, 6% visible
METAR KSUS 300054Z 00000KT 10SM SCT049 SCT060 28/26 A3009 RMK AO2 SLP180 T02830256

10-Day Weather Forecast

Almanac

Astronomy

Aug. 29, 2016 Rise Set
Actual Time
Civil Twilight
Nautical Twilight
Astronomical Twilight
Moon
Length of Visible Light
Length of Day
Tomorrow will be .
, % of the Moon is Illuminated

Today's Extremes

State Highs State Lows

Community

WunderPhotos

Upload Photos

1,935,709 photos uploaded!

WunderBlog® & News

Nearby

Air Quality

  Air Quality AQ Index Pollutant
Not available.

Snow Depth

Station Depth Elevation

Earthquake Activity

City Distance Mag. Time & Date
Minimum magnitude displayed is 2.5.

Coastal Water Temperatures

Place Temperature

Stations

Nearby Weather Stations

Station Location Temp. Windchill Dew Point Humidity Wind Precip. Elev Updated Type
                   

Watches & Warnings

There are currently no watches in effect.